createdAt,value
2023-05-02T00:02:32.855Z,9.60
2023-05-02T00:05:39.280Z,9.58
2023-05-02T00:08:47.786Z,9.55
2023-05-02T00:11:54.179Z,9.47
2023-05-02T00:14:59.887Z,9.48
2023-05-02T00:18:06.564Z,9.45
2023-05-02T00:21:12.085Z,9.43
2023-05-02T00:24:21.784Z,9.44
2023-05-02T00:27:27.339Z,9.45
2023-05-02T00:30:33.956Z,9.44
2023-05-02T00:33:39.493Z,9.50
2023-05-02T00:36:45.896Z,9.50
2023-05-02T00:39:54.357Z,9.42
2023-05-02T00:43:00.762Z,9.41
2023-05-02T00:46:07.866Z,9.37
2023-05-02T00:49:14.194Z,9.28
2023-05-02T00:52:19.838Z,9.31
2023-05-02T00:55:29.370Z,9.29
2023-05-02T00:58:35.530Z,9.27
2023-05-02T01:02:03.894Z,9.22
2023-05-02T01:05:20.401Z,9.18
2023-05-02T01:08:43.587Z,9.12
2023-05-02T01:12:03.978Z,9.04
2023-05-02T01:15:19.556Z,8.98
2023-05-02T01:18:30.342Z,8.93
2023-05-02T01:21:39.302Z,8.91
2023-05-02T01:25:03.843Z,8.86
2023-05-02T01:28:32.356Z,8.82
2023-05-02T01:31:47.445Z,8.78
2023-05-02T01:34:57.264Z,8.72
2023-05-02T01:38:06.544Z,8.70
2023-05-02T01:41:15.964Z,8.67
2023-05-02T01:44:26.607Z,8.66
2023-05-02T01:47:39.728Z,8.66
2023-05-02T01:50:50.665Z,8.66
2023-05-02T01:53:58.218Z,8.68
2023-05-02T01:57:09.478Z,8.71
2023-05-02T02:00:19.816Z,8.74
2023-05-02T02:03:33.082Z,8.77
2023-05-02T02:06:39.124Z,8.78
2023-05-02T02:09:45.951Z,8.82
2023-05-02T02:13:01.054Z,8.84
2023-05-02T02:16:13.340Z,8.88
2023-05-02T02:19:24.440Z,8.85
2023-05-02T02:22:33.850Z,8.91
2023-05-02T02:25:41.156Z,8.94
2023-05-02T02:28:48.318Z,8.96
2023-05-02T02:31:53.736Z,8.98
2023-05-02T02:35:04.714Z,8.99
2023-05-02T02:38:23.706Z,9.02
2023-05-02T02:41:40.342Z,9.05
2023-05-02T02:44:59.404Z,9.05
2023-05-02T02:48:23.251Z,9.05
2023-05-02T02:51:41.801Z,9.05
2023-05-02T02:54:55.763Z,9.02
2023-05-02T02:58:18.863Z,9.02
2023-05-02T03:01:30.342Z,9.02
2023-05-02T03:04:39.683Z,9.02
2023-05-02T03:07:49.177Z,9.02
2023-05-02T03:10:55.552Z,9.04
2023-05-02T03:14:01.959Z,9.05
2023-05-02T03:17:08.602Z,9.04
2023-05-02T03:20:15.958Z,9.04
2023-05-02T03:23:24.687Z,9.06
2023-05-02T03:26:34.033Z,9.04
2023-05-02T03:29:40.063Z,9.06
2023-05-02T03:32:47.031Z,9.06
2023-05-02T03:35:52.725Z,9.05
2023-05-02T03:39:02.390Z,9.04
2023-05-02T03:42:09.079Z,9.02
2023-05-02T03:45:15.559Z,9.03
2023-05-02T03:48:21.178Z,8.98
2023-05-02T03:51:27.697Z,9.06
2023-05-02T03:54:38.704Z,9.08
2023-05-02T03:57:45.232Z,9.14
2023-05-02T04:00:53.189Z,9.13
2023-05-02T04:03:59.830Z,9.20
2023-05-02T04:07:10.250Z,9.23
2023-05-02T04:10:20.184Z,9.29
2023-05-02T04:13:32.335Z,9.38
2023-05-02T04:16:39.777Z,9.39
2023-05-02T04:19:46.019Z,9.57
2023-05-02T04:22:53.441Z,9.65
2023-05-02T04:26:01.922Z,9.75
2023-05-02T04:29:17.132Z,9.82
2023-05-02T04:32:23.060Z,9.92
2023-05-02T04:35:30.049Z,10.00
2023-05-02T04:38:36.023Z,10.11
2023-05-02T04:41:46.625Z,10.16
2023-05-02T04:44:53.669Z,10.29
2023-05-02T04:48:01.049Z,10.36
2023-05-02T04:51:06.988Z,10.48
2023-05-02T04:54:13.392Z,10.50
2023-05-02T04:57:23.717Z,10.63
2023-05-02T05:00:34.563Z,10.68
2023-05-02T05:03:43.768Z,10.74
2023-05-02T05:06:50.739Z,10.78
2023-05-02T05:09:58.602Z,10.86
2023-05-02T05:13:12.922Z,10.95
2023-05-02T05:16:20.548Z,11.05
2023-05-02T05:19:28.217Z,11.15
2023-05-02T05:22:34.876Z,11.25
2023-05-02T05:25:42.958Z,11.33
2023-05-02T05:28:54.303Z,11.47
2023-05-02T05:32:03.140Z,11.60
2023-05-02T05:35:10.343Z,11.74
2023-05-02T05:38:17.986Z,11.88
2023-05-02T05:41:26.202Z,12.03
2023-05-02T05:44:42.683Z,12.17
2023-05-02T05:47:48.885Z,12.30
2023-05-02T05:50:55.780Z,12.44
2023-05-02T05:54:01.530Z,12.59
2023-05-02T05:57:07.893Z,12.73
2023-05-02T06:00:18.570Z,12.82
2023-05-02T06:03:29.147Z,12.94
2023-05-02T06:06:35.353Z,13.00
2023-05-02T06:09:42.669Z,13.15
2023-05-02T06:12:49.237Z,13.26
2023-05-02T06:16:04.966Z,13.36
2023-05-02T06:19:10.420Z,13.47
2023-05-02T06:22:19.173Z,13.60
2023-05-02T06:25:24.658Z,13.78
2023-05-02T06:28:31.319Z,13.96
2023-05-02T06:31:39.840Z,14.09
2023-05-02T06:34:46.893Z,14.24
2023-05-02T06:37:52.493Z,14.37
2023-05-02T06:40:58.829Z,14.48
2023-05-02T06:44:04.301Z,14.52
2023-05-02T06:47:13.546Z,14.56
2023-05-02T06:50:19.643Z,14.63
2023-05-02T06:53:26.046Z,14.72
2023-05-02T06:56:32.206Z,14.87
2023-05-02T06:59:39.103Z,15.03
2023-05-02T07:02:50.082Z,15.16
2023-05-02T07:05:56.469Z,15.37
2023-05-02T07:09:01.996Z,15.50
2023-05-02T07:12:09.079Z,15.51
2023-05-02T07:15:16.757Z,15.63
2023-05-02T07:18:26.062Z,15.47
2023-05-02T07:21:32.708Z,15.47
2023-05-02T07:24:39.005Z,15.28
2023-05-02T07:27:44.827Z,15.32
2023-05-02T07:30:51.177Z,15.10
2023-05-02T07:33:59.396Z,15.04
2023-05-02T07:37:06.043Z,14.88
2023-05-02T07:40:13.506Z,15.01
2023-05-02T07:43:19.869Z,15.02
2023-05-02T07:46:25.757Z,15.21
2023-05-02T07:49:35.237Z,15.33
2023-05-02T07:52:40.978Z,15.41
2023-05-02T07:55:47.888Z,15.57
2023-05-02T07:58:55.451Z,15.62
2023-05-02T08:02:02.840Z,15.75
2023-05-02T08:05:12.208Z,15.86
2023-05-02T08:08:18.760Z,15.96
2023-05-02T08:11:26.391Z,15.80
2023-05-02T08:14:33.073Z,15.98
2023-05-02T08:17:38.701Z,15.82
2023-05-02T08:20:48.650Z,15.95
2023-05-02T08:23:54.324Z,16.09
2023-05-02T08:27:01.435Z,16.15
2023-05-02T08:30:08.331Z,16.22
2023-05-02T08:33:15.395Z,16.10
2023-05-02T08:36:24.293Z,16.06
2023-05-02T08:39:31.097Z,15.94
2023-05-02T08:42:39.066Z,15.90
2023-05-02T08:45:48.206Z,15.74
2023-05-02T08:48:59.389Z,15.79
2023-05-02T08:52:12.514Z,15.89
2023-05-02T08:55:19.867Z,16.06
2023-05-02T08:58:26.703Z,15.97
2023-05-02T09:01:39.819Z,16.11
2023-05-02T09:04:53.822Z,16.26
2023-05-02T09:08:02.639Z,16.49
2023-05-02T09:11:11.968Z,16.70
2023-05-02T09:14:21.711Z,16.67
2023-05-02T09:17:28.794Z,16.73
2023-05-02T09:20:44.676Z,16.69
2023-05-02T09:23:57.209Z,16.97
2023-05-02T09:27:05.928Z,16.89
2023-05-02T09:30:28.534Z,17.25
2023-05-02T09:33:34.882Z,17.21
2023-05-02T09:36:47.912Z,17.22
2023-05-02T09:40:12.681Z,17.07
2023-05-02T09:43:21.315Z,17.10
2023-05-02T09:46:27.531Z,17.33
2023-05-02T09:49:45.837Z,17.11
2023-05-02T09:53:06.664Z,17.42
2023-05-02T09:56:16.739Z,17.29
2023-05-02T09:59:22.613Z,17.56
2023-05-02T10:02:33.542Z,17.54
2023-05-02T10:05:43.465Z,17.79
2023-05-02T10:08:52.381Z,17.86
2023-05-02T10:12:08.600Z,17.61
2023-05-02T10:15:22.829Z,17.39
2023-05-02T10:18:33.616Z,17.29
2023-05-02T10:21:42.497Z,17.07
2023-05-02T10:24:50.147Z,17.06
2023-05-02T10:28:02.162Z,17.16
2023-05-02T10:31:13.584Z,17.21
2023-05-02T10:34:23.891Z,16.68
2023-05-02T10:37:33.975Z,16.72
2023-05-02T10:40:43.306Z,16.72
2023-05-02T10:43:53.645Z,16.83
2023-05-02T10:47:01.299Z,16.88
2023-05-02T10:50:08.940Z,16.79
2023-05-02T10:53:33.415Z,16.70
2023-05-02T10:57:18.485Z,16.76
2023-05-02T11:00:31.453Z,16.80
2023-05-02T11:04:00.453Z,16.92
2023-05-02T11:07:22.676Z,16.75
2023-05-02T11:10:30.652Z,16.23
2023-05-02T11:13:53.046Z,16.46
2023-05-02T11:17:19.243Z,16.40
2023-05-02T11:20:26.438Z,16.58
2023-05-02T11:23:32.478Z,16.64
2023-05-02T11:26:39.269Z,16.54
2023-05-02T11:30:05.164Z,16.67
2023-05-02T11:33:22.744Z,16.60
2023-05-02T11:36:33.946Z,16.59
2023-05-02T11:39:40.573Z,16.42
2023-05-02T11:42:46.449Z,15.96
2023-05-02T11:45:53.610Z,15.61
2023-05-02T11:49:02.676Z,15.34
2023-05-02T11:52:09.311Z,15.13
2023-05-02T11:55:20.334Z,15.08
2023-05-02T11:58:30.301Z,15.04
2023-05-02T12:01:36.839Z,15.24
2023-05-02T12:04:49.183Z,15.40
2023-05-02T12:07:55.127Z,15.59
2023-05-02T12:11:02.543Z,15.82
2023-05-02T12:14:11.328Z,15.93
2023-05-02T12:17:18.900Z,16.05
2023-05-02T12:20:27.934Z,16.20
2023-05-02T12:23:35.373Z,16.30
2023-05-02T12:26:42.590Z,16.36
2023-05-02T12:29:52.060Z,16.29
2023-05-02T12:33:01.733Z,16.39
2023-05-02T12:36:15.376Z,16.58
2023-05-02T12:39:21.419Z,16.60
2023-05-02T12:42:30.975Z,16.49
2023-05-02T12:45:37.037Z,16.57
2023-05-02T12:48:44.952Z,16.43
2023-05-02T12:52:00.592Z,16.18
2023-05-02T12:55:20.544Z,16.43
2023-05-02T12:58:28.873Z,16.36
2023-05-02T13:01:37.536Z,16.32
2023-05-02T13:04:44.722Z,16.46
2023-05-02T13:07:56.796Z,16.28
2023-05-02T13:11:03.120Z,16.20
2023-05-02T13:14:11.826Z,16.26
2023-05-02T13:17:17.623Z,16.18
2023-05-02T13:20:24.583Z,16.19
2023-05-02T13:23:33.140Z,16.22
2023-05-02T13:26:39.654Z,16.26
2023-05-02T13:29:45.739Z,16.19
2023-05-02T13:32:52.929Z,16.24
2023-05-02T13:35:58.897Z,16.23
2023-05-02T13:39:08.484Z,16.24
2023-05-02T13:42:14.117Z,16.23
2023-05-02T13:45:20.799Z,16.16
2023-05-02T13:48:26.799Z,16.12
2023-05-02T13:51:34.554Z,16.12
2023-05-02T13:54:43.661Z,16.16
2023-05-02T13:57:50.611Z,16.09
2023-05-02T14:00:57.206Z,16.13
2023-05-02T14:04:09.201Z,16.08
2023-05-02T14:07:15.222Z,16.15
2023-05-02T14:10:24.618Z,16.04
2023-05-02T14:13:30.309Z,15.88
2023-05-02T14:16:37.065Z,15.88
2023-05-02T14:19:42.817Z,15.77
2023-05-02T14:22:49.245Z,15.64
2023-05-02T14:25:57.740Z,15.54
2023-05-02T14:29:04.573Z,15.48
2023-05-02T14:32:10.371Z,15.34
2023-05-02T14:35:16.982Z,15.26
2023-05-02T14:38:22.614Z,15.12
2023-05-02T14:41:31.959Z,15.03
2023-05-02T14:44:37.551Z,15.05
2023-05-02T14:47:44.011Z,15.05
2023-05-02T14:50:50.299Z,15.11
2023-05-02T14:53:57.744Z,14.92
2023-05-02T14:57:07.908Z,15.10
2023-05-02T15:00:16.471Z,15.11
2023-05-02T15:03:22.485Z,15.09
2023-05-02T15:06:34.056Z,15.06
2023-05-02T15:09:40.055Z,15.10
2023-05-02T15:12:51.232Z,15.08
2023-05-02T15:15:57.340Z,15.09
2023-05-02T15:19:04.138Z,15.12
2023-05-02T15:22:10.097Z,15.06
2023-05-02T15:25:17.440Z,14.86
2023-05-02T15:28:26.461Z,14.74
2023-05-02T15:31:34.319Z,14.60
2023-05-02T15:34:40.096Z,14.61
2023-05-02T15:37:46.700Z,14.55
2023-05-02T15:41:00.058Z,14.42
2023-05-02T15:44:09.523Z,14.19
2023-05-02T15:47:18.110Z,14.00
2023-05-02T15:50:26.058Z,13.87
2023-05-02T15:53:32.618Z,13.75
2023-05-02T15:56:39.168Z,13.67
2023-05-02T15:59:47.923Z,13.54
2023-05-02T16:02:56.133Z,13.39
2023-05-02T16:06:02.288Z,13.29
2023-05-02T16:09:08.961Z,13.18
2023-05-02T16:12:14.943Z,13.14
2023-05-02T16:15:25.192Z,12.98
2023-05-02T16:18:31.497Z,12.83
2023-05-02T16:21:38.329Z,12.65
2023-05-02T16:24:44.334Z,12.50
2023-05-02T16:27:50.992Z,12.36
2023-05-02T16:30:59.572Z,12.25
2023-05-02T16:34:06.733Z,12.27
2023-05-02T16:37:12.534Z,12.26
2023-05-02T16:40:19.564Z,12.37
2023-05-02T16:43:25.341Z,12.40
2023-05-02T16:46:35.142Z,12.44
2023-05-02T16:49:40.884Z,12.49
2023-05-02T16:52:47.672Z,12.57
2023-05-02T16:55:53.446Z,12.63
2023-05-02T16:58:59.947Z,12.59
2023-05-02T17:02:08.414Z,12.58
2023-05-02T17:05:14.978Z,12.60
2023-05-02T17:08:21.219Z,12.53
2023-05-02T17:11:28.854Z,12.45
2023-05-02T17:14:34.916Z,12.38
2023-05-02T17:17:44.569Z,12.21
2023-05-02T17:20:51.867Z,12.15
2023-05-02T17:23:58.662Z,12.11
2023-05-02T17:27:04.664Z,12.02
2023-05-02T17:30:14.001Z,12.00
2023-05-02T17:33:22.683Z,11.98
2023-05-02T17:36:29.489Z,11.94
2023-05-02T17:39:35.670Z,11.91
2023-05-02T17:42:45.844Z,11.93
2023-05-02T17:45:51.770Z,11.90
2023-05-02T17:49:01.944Z,11.85
2023-05-02T17:52:07.846Z,11.81
2023-05-02T17:55:16.446Z,11.77
2023-05-02T17:58:23.823Z,11.86
2023-05-02T18:01:30.807Z,11.93
2023-05-02T18:04:39.793Z,12.01
2023-05-02T18:07:46.694Z,12.10
2023-05-02T18:10:52.870Z,12.17
2023-05-02T18:14:03.917Z,12.21
2023-05-02T18:17:10.043Z,12.21
2023-05-02T18:20:20.191Z,12.32
2023-05-02T18:23:26.249Z,12.37
2023-05-02T18:26:33.234Z,12.40
2023-05-02T18:29:39.937Z,12.38
2023-05-02T18:32:46.720Z,12.41
2023-05-02T18:35:55.468Z,12.41
2023-05-02T18:39:03.487Z,12.44
2023-05-02T18:42:11.450Z,12.45
2023-05-02T18:45:19.046Z,12.49
2023-05-02T18:48:25.277Z,12.49
2023-05-02T18:51:36.222Z,12.51
2023-05-02T18:54:43.710Z,12.49
2023-05-02T18:57:51.573Z,12.42
2023-05-02T19:00:57.681Z,12.29
2023-05-02T19:04:05.217Z,12.11
2023-05-02T19:07:17.922Z,12.10
2023-05-02T19:10:26.709Z,12.02
2023-05-02T19:13:33.127Z,11.96
2023-05-02T19:16:41.631Z,11.91
2023-05-02T19:19:49.484Z,11.93
2023-05-02T19:23:18.139Z,11.94
2023-05-02T19:26:25.103Z,11.94
2023-05-02T19:29:33.839Z,11.88
2023-05-02T19:32:41.898Z,11.80
2023-05-02T19:35:58.836Z,11.71
2023-05-02T19:39:09.807Z,11.65
2023-05-02T19:42:17.450Z,11.64
2023-05-02T19:45:23.680Z,11.65
2023-05-02T19:48:32.568Z,11.65
2023-05-02T19:51:39.433Z,11.69
2023-05-02T19:54:49.663Z,11.69
2023-05-02T19:58:02.721Z,11.71
2023-05-02T20:01:09.758Z,11.72
2023-05-02T20:04:16.412Z,11.72
2023-05-02T20:07:23.120Z,11.68
2023-05-02T20:10:32.532Z,11.73
2023-05-02T20:13:40.940Z,11.67
2023-05-02T20:16:47.262Z,11.58
2023-05-02T20:19:57.786Z,11.49
2023-05-02T20:23:04.675Z,11.42
2023-05-02T20:26:17.632Z,11.37
2023-05-02T20:29:24.463Z,11.34
2023-05-02T20:32:34.047Z,11.16
2023-05-02T20:35:42.417Z,11.22
2023-05-02T20:38:53.523Z,11.18
2023-05-02T20:42:04.525Z,11.12
2023-05-02T20:45:14.859Z,11.15
2023-05-02T20:51:32.547Z,11.16
2023-05-02T20:54:38.532Z,11.22
2023-05-02T20:57:51.466Z,11.26
2023-05-02T21:00:58.435Z,11.29
2023-05-02T21:04:05.543Z,11.32
2023-05-02T21:07:11.959Z,11.30
2023-05-02T21:10:18.625Z,11.28
2023-05-02T21:13:27.478Z,11.24
2023-05-02T21:16:34.162Z,11.09
2023-05-02T21:19:40.051Z,11.15
2023-05-02T21:22:46.568Z,11.08
2023-05-02T21:25:52.410Z,10.96
2023-05-02T21:29:02.881Z,10.83
2023-05-02T21:32:09.359Z,10.72
2023-05-02T21:35:16.000Z,10.59
2023-05-02T21:38:21.595Z,10.43
2023-05-02T21:41:28.257Z,10.36
2023-05-02T21:44:36.709Z,10.27
2023-05-02T21:47:43.459Z,10.16
2023-05-02T21:50:49.097Z,10.00
2023-05-02T21:53:56.881Z,9.86
2023-05-02T21:57:02.997Z,9.80
2023-05-02T22:00:16.360Z,9.71
2023-05-02T22:03:23.860Z,9.69
2023-05-02T22:06:30.389Z,9.68
2023-05-02T22:09:36.439Z,9.66
2023-05-02T22:12:42.948Z,9.69
2023-05-02T22:15:52.105Z,9.66
2023-05-02T22:18:59.520Z,9.67
2023-05-02T22:22:05.676Z,9.71
2023-05-02T22:25:12.938Z,9.75
2023-05-02T22:28:18.668Z,9.71
2023-05-02T22:31:27.975Z,9.66
2023-05-02T22:34:33.567Z,9.52
2023-05-02T22:37:39.882Z,9.47
2023-05-02T22:40:45.564Z,9.44
2023-05-02T22:43:51.884Z,9.43
2023-05-02T22:47:00.507Z,9.46
2023-05-02T22:50:10.333Z,9.51
2023-05-02T22:53:15.817Z,9.58
2023-05-02T22:56:22.169Z,9.63
2023-05-02T22:59:27.744Z,9.66
2023-05-02T23:02:37.498Z,9.67
2023-05-02T23:05:43.163Z,9.69
2023-05-02T23:08:49.480Z,9.65
2023-05-02T23:11:55.053Z,9.62
2023-05-02T23:15:01.686Z,9.56
2023-05-02T23:18:10.807Z,9.62
2023-05-02T23:21:18.729Z,9.62
2023-05-02T23:24:24.246Z,9.66
2023-05-02T23:27:30.613Z,9.63
2023-05-02T23:30:36.775Z,9.66
2023-05-02T23:33:46.293Z,9.69
2023-05-02T23:36:54.349Z,9.74
2023-05-02T23:40:01.653Z,9.76
2023-05-02T23:43:08.178Z,9.73
2023-05-02T23:46:14.575Z,9.74
2023-05-02T23:49:22.917Z,9.69
2023-05-02T23:52:29.298Z,9.60
2023-05-02T23:55:35.686Z,9.62
2023-05-02T23:58:42.032Z,9.53
